Time;durP1;ratioP1;P1;durP2;ratioP2;P2;SDS_P1;SDS_P2;PMS_P1;PMS_P2;Temp;Humidity;BMP_temperature;BMP_pressure;BME280_temperature;BME280_humidity;BME280_pressure;Samples;Min_cycle;Max_cycle;Signal;HPM_P1;HPM_P2
2020/12/11 00:00:48;;;;;;;35.90;22.93;;;;;;;8.92;74.71;94185.22;5087162;28;20925;-68
2020/12/11 00:03:14;;;;;;;50.57;28.23;;;;;;;8.66;74.89;94176.59;5086891;28;20536;-66
2020/12/11 00:05:41;;;;;;;50.63;28.97;;;;;;;8.59;75.33;94173.44;5086854;28;20440;-68
2020/12/11 00:08:09;;;;;;;48.17;27.83;;;;;;;8.51;75.24;94171.34;5087341;28;20951;-66
2020/12/11 00:10:35;;;;;;;42.05;24.63;;;;;;;8.46;75.11;94187.00;5088553;28;20506;-69
2020/12/11 00:13:02;;;;;;;41.97;24.00;;;;;;;8.47;75.54;94185.94;5090970;28;20195;-67
2020/12/11 00:15:29;;;;;;;38.03;22.10;;;;;;;8.59;75.33;94196.94;5089891;28;20465;-68
2020/12/11 00:17:55;;;;;;;35.43;21.10;;;;;;;8.43;74.83;94168.47;5090770;28;20498;-66
2020/12/11 00:20:22;;;;;;;30.90;18.20;;;;;;;8.68;74.98;94190.16;5090436;28;20557;-67
2020/12/11 00:22:49;;;;;;;31.27;17.97;;;;;;;8.66;74.68;94189.63;5090831;28;20429;-66
2020/12/11 00:25:35;;;;;;;24.73;15.20;;;;;;;8.50;74.70;94193.28;5089001;28;20615;-66
2020/12/11 00:28:20;;;;;;;23.77;13.97;;;;;;;8.52;74.58;94193.78;5090951;28;21109;-66
2020/12/11 00:30:46;;;;;;;21.17;12.90;;;;;;;8.45;75.40;94201.09;5088036;28;20897;-65
2020/12/11 00:33:12;;;;;;;21.97;12.83;;;;;;;8.39;75.64;94199.53;5090467;28;20215;-65
2020/12/11 00:35:39;;;;;;;18.83;11.93;;;;;;;8.47;74.98;94199.00;5090621;28;20437;-65
2020/12/11 00:38:05;;;;;;;15.83;10.30;;;;;;;8.34;74.92;94204.72;5087763;28;20433;-71
2020/12/11 00:40:31;;;;;;;14.43;9.40;;;;;;;8.57;74.39;94212.09;5090278;28;21008;-66
2020/12/11 00:43:07;;;;;;;14.77;8.63;;;;;;;8.46;74.84;94210.50;5088322;28;20472;-70
2020/12/11 00:45:34;;;;;;;12.43;8.27;;;;;;;8.44;75.00;94215.19;5090089;28;20463;-64
2020/12/11 00:48:01;;;;;;;12.77;7.95;;;;;;;8.43;74.58;94211.00;5090694;28;20448;-65
2020/12/11 00:50:27;;;;;;;10.00;7.03;;;;;;;8.31;75.55;94215.69;5088788;28;20698;-66
2020/12/11 00:52:54;;;;;;;9.82;7.10;;;;;;;8.34;74.90;94207.31;5090780;28;20440;-68
2020/12/11 00:55:21;;;;;;;15.20;8.25;;;;;;;8.38;75.09;94208.38;5090394;28;20198;-64
2020/12/11 00:57:48;;;;;;;12.57;8.25;;;;;;;8.27;75.47;94206.78;5089822;28;20188;-69
2020/12/11 01:00:16;;;;;;;11.73;8.20;;;;;;;8.23;75.21;94208.31;5089643;28;20268;-66
2020/12/11 01:02:42;;;;;;;12.83;7.43;;;;;;;8.26;75.12;94201.84;5088690;28;20195;-65
2020/12/11 01:05:09;;;;;;;12.52;7.85;;;;;;;8.39;74.46;94215.19;5089512;28;20433;-63
2020/12/11 01:07:36;;;;;;;11.05;7.30;;;;;;;8.36;74.49;94215.69;5090933;28;20195;-67
2020/12/11 01:10:04;;;;;;;9.83;7.00;;;;;;;8.31;74.67;94204.44;5093047;28;20196;-65
2020/12/11 01:12:30;;;;;;;12.57;7.50;;;;;;;8.24;75.37;94204.69;5090432;28;20796;-66
2020/12/11 01:14:58;;;;;;;12.20;7.47;;;;;;;8.31;75.01;94202.63;5089544;28;21081;-66
2020/12/11 01:17:24;;;;;;;11.70;7.55;;;;;;;8.32;75.23;94209.41;5089627;28;20192;-68
2020/12/11 01:19:51;;;;;;;10.40;7.17;;;;;;;8.33;74.99;94212.81;5089276;28;20215;-66
2020/12/11 01:22:18;;;;;;;12.13;6.88;;;;;;;8.36;75.00;94207.09;5089870;28;20483;-67
2020/12/11 01:24:44;;;;;;;9.13;6.60;;;;;;;8.29;75.04;94206.53;5089426;28;20199;-67
2020/12/11 01:27:11;;;;;;;9.03;6.27;;;;;;;8.38;74.46;94205.78;5090238;28;20187;-66
2020/12/11 01:29:38;;;;;;;7.97;5.78;;;;;;;8.23;74.53;94209.09;5088774;28;20966;-68
2020/12/11 01:32:04;;;;;;;8.27;5.68;;;;;;;8.29;75.10;94202.09;5089313;28;20195;-66
2020/12/11 01:34:30;;;;;;;9.40;5.90;;;;;;;8.25;74.69;94195.81;5088936;28;20315;-66
2020/12/11 01:37:04;;;;;;;9.90;5.45;;;;;;;8.34;74.46;94209.94;5089133;28;20445;-69
2020/12/11 01:39:31;;;;;;;9.57;5.57;;;;;;;8.32;74.18;94201.56;5086751;28;20219;-69
2020/12/11 01:41:59;;;;;;;10.57;5.65;;;;;;;8.38;73.39;94199.75;5089152;28;20429;-68
2020/12/11 01:44:29;;;;;;;9.07;5.53;;;;;;;8.37;73.30;94193.78;5089161;28;20195;-67
2020/12/11 01:46:57;;;;;;;7.38;5.10;;;;;;;8.36;74.26;94196.66;5089109;28;20205;-69
2020/12/11 01:49:24;;;;;;;6.10;4.82;;;;;;;8.39;73.91;94191.69;5089041;28;20203;-66
2020/12/11 01:51:50;;;;;;;6.78;4.68;;;;;;;8.22;72.51;94196.31;5089351;28;20190;-70
2020/12/11 01:54:17;;;;;;;7.60;4.90;;;;;;;8.05;73.63;94185.28;5089132;28;20193;-66
2020/12/11 01:56:55;;;;;;;7.15;5.05;;;;;;;8.20;73.26;94193.19;5089226;28;20187;-68
2020/12/11 01:59:29;;;;;;;8.20;5.93;;;;;;;8.19;73.76;94191.63;5088691;28;20248;-64
2020/12/11 02:01:58;;;;;;;8.88;6.38;;;;;;;8.22;73.18;94185.88;5087269;28;20448;-67
2020/12/11 02:04:25;;;;;;;10.32;6.90;;;;;;;8.26;72.83;94189.56;5085949;28;20286;-65
2020/12/11 02:06:52;;;;;;;8.32;5.85;;;;;;;8.23;72.61;94192.66;5088999;28;20680;-68
2020/12/11 02:09:20;;;;;;;10.43;6.53;;;;;;;8.16;73.26;94181.69;5088230;28;20191;-68
2020/12/11 02:11:52;;;;;;;12.07;7.60;;;;;;;8.18;72.81;94185.59;5089060;28;20195;-64
2020/12/11 02:14:18;;;;;;;13.93;7.53;;;;;;;8.04;73.42;94194.97;5088347;28;20195;-65
2020/12/11 02:16:45;;;;;;;12.85;7.75;;;;;;;7.97;73.38;94193.63;5089108;28;20429;-67
2020/12/11 02:19:13;;;;;;;12.35;7.18;;;;;;;7.86;73.83;94182.38;5088332;28;20752;-68
2020/12/11 02:21:39;;;;;;;10.50;7.70;;;;;;;7.70;74.02;94159.13;5088600;28;20203;-67
2020/12/11 02:24:06;;;;;;;10.50;6.68;;;;;;;8.03;73.53;94189.97;5088374;28;20175;-68
2020/12/11 02:26:32;;;;;;;9.90;6.30;;;;;;;7.94;73.32;94194.13;5088625;28;20198;-63
2020/12/11 02:28:59;;;;;;;10.63;6.40;;;;;;;8.00;73.96;94188.69;5087843;28;20199;-66
2020/12/11 02:31:25;;;;;;;8.35;5.43;;;;;;;8.05;73.57;94190.50;5086031;28;20191;-66
2020/12/11 02:33:52;;;;;;;9.05;5.82;;;;;;;8.11;73.68;94195.50;5087085;28;20703;-67
2020/12/11 02:36:20;;;;;;;8.65;5.88;;;;;;;8.15;73.89;94196.56;5088117;28;20393;-69
2020/12/11 02:38:47;;;;;;;9.10;5.45;;;;;;;8.08;73.16;94195.25;5085365;28;20784;-70
2020/12/11 02:41:13;;;;;;;12.80;7.95;;;;;;;7.78;74.66;94187.28;5094254;28;20371;-68
2020/12/11 02:43:40;;;;;;;10.10;5.75;;;;;;;7.99;74.77;94204.59;5087682;28;20300;-64
2020/12/11 02:46:06;;;;;;;10.98;6.28;;;;;;;7.48;75.44;94194.97;5088305;28;20269;-64
2020/12/11 02:48:33;;;;;;;12.30;5.85;;;;;;;7.88;74.73;94195.16;5087693;28;20191;-65
2020/12/11 02:51:00;;;;;;;14.03;6.40;;;;;;;7.99;74.87;94196.78;5088131;28;20202;-67
2020/12/11 02:53:26;;;;;;;12.10;6.50;;;;;;;7.84;73.97;94191.50;5085226;28;20434;-68
2020/12/11 02:55:57;;;;;;;10.63;6.13;;;;;;;7.78;74.74;94193.28;5088330;28;20241;-65
2020/12/11 02:58:23;;;;;;;14.50;7.32;;;;;;;7.81;74.97;94192.78;5087413;28;20429;-67
2020/12/11 03:00:50;;;;;;;13.60;6.88;;;;;;;8.08;74.66;94192.63;5087702;28;20210;-66
2020/12/11 03:03:16;;;;;;;12.18;6.93;;;;;;;8.22;74.67;94191.09;5087607;28;20187;-68
2020/12/11 03:05:42;;;;;;;10.75;6.35;;;;;;;8.24;75.11;94196.88;5087886;28;20213;-65
2020/12/11 03:08:09;;;;;;;11.13;7.37;;;;;;;8.36;74.45;94197.41;5087930;28;20574;-66
2020/12/11 03:10:35;;;;;;;11.70;6.68;;;;;;;8.35;74.05;94200.28;5087594;28;20502;-68
2020/12/11 03:13:02;;;;;;;12.23;7.50;;;;;;;8.47;74.58;94200.81;5087865;28;20210;-65
2020/12/11 03:15:28;;;;;;;15.10;8.50;;;;;;;8.45;74.60;94195.88;5087495;28;20209;-67
2020/12/11 03:17:55;;;;;;;12.45;7.88;;;;;;;8.51;73.81;94201.88;5087951;28;20966;-67
2020/12/11 03:20:24;;;;;;;15.32;7.75;;;;;;;8.49;73.12;94201.34;5087315;28;20219;-67
2020/12/11 03:22:56;;;;;;;49.05;34.20;;;;;;;8.34;72.86;94204.72;5087907;28;20268;-66
2020/12/11 03:25:26;;;;;;;13.97;7.63;;;;;;;8.22;72.99;94198.94;5087554;28;20183;-64
2020/12/11 03:27:52;;;;;;;12.60;6.80;;;;;;;8.23;73.72;94203.88;5087892;28;20449;-68
2020/12/11 03:30:19;;;;;;;12.30;6.78;;;;;;;8.21;73.86;94215.63;5087277;28;20195;-67
2020/12/11 03:32:45;;;;;;;12.95;7.07;;;;;;;8.32;73.75;94211.25;5087781;28;20225;-65
2020/12/11 03:35:12;;;;;;;14.82;6.93;;;;;;;8.30;73.04;94213.34;5087398;28;20183;-67
2020/12/11 03:37:38;;;;;;;9.43;5.68;;;;;;;8.23;72.85;94222.16;5087389;28;20348;-65
2020/12/11 03:40:05;;;;;;;11.13;6.03;;;;;;;8.12;73.70;94223.16;5086988;28;20314;-65
2020/12/11 03:42:32;;;;;;;9.85;6.10;;;;;;;8.28;72.86;94237.09;5088006;28;20589;-69
2020/12/11 03:44:59;;;;;;;12.33;6.50;;;;;;;8.28;72.74;94231.06;5089576;28;20287;-67
2020/12/11 03:47:29;;;;;;;10.98;5.75;;;;;;;8.21;72.84;94231.28;5091313;28;20429;-67
2020/12/11 03:49:57;;;;;;;9.10;5.18;;;;;;;8.25;72.22;94237.56;5090882;28;20571;-67
2020/12/11 03:52:29;;;;;;;6.53;4.10;;;;;;;8.13;72.63;94244.81;5091325;28;20187;-64
2020/12/11 03:54:57;;;;;;;8.63;4.90;;;;;;;8.16;72.99;94239.09;5091226;28;20477;-67
2020/12/11 03:57:24;;;;;;;8.63;5.00;;;;;;;8.37;72.75;94250.41;5091294;28;20189;-66
2020/12/11 03:59:50;;;;;;;9.32;5.22;;;;;;;8.33;73.57;94247.53;5090318;28;20461;-65
2020/12/11 04:02:17;;;;;;;9.95;5.30;;;;;;;8.40;73.89;94250.69;5091663;28;20206;-67
2020/12/11 04:04:45;;;;;;;9.27;5.05;;;;;;;8.42;73.52;94250.41;5090843;28;20195;-68
2020/12/11 04:07:11;;;;;;;8.60;5.07;;;;;;;8.34;73.94;94246.47;5089799;28;20550;-66
2020/12/11 04:09:38;;;;;;;9.95;6.60;;;;;;;8.32;73.97;94248.56;5090443;28;20934;-66
2020/12/11 04:12:04;;;;;;;11.90;5.90;;;;;;;8.29;74.55;94256.13;5091933;28;20684;-66
2020/12/11 04:14:32;;;;;;;17.42;10.27;;;;;;;8.25;74.74;94263.66;5091302;28;20189;-64
2020/12/11 04:17:02;;;;;;;21.90;12.60;;;;;;;8.29;74.71;94264.75;5091294;28;20581;-65
2020/12/11 04:19:28;;;;;;;20.10;11.35;;;;;;;8.29;74.06;94262.13;5088253;28;21403;-65
2020/12/11 04:21:55;;;;;;;32.30;17.95;;;;;;;8.30;74.62;94261.09;5091384;28;20276;-64
2020/12/11 04:24:23;;;;;;;33.15;19.25;;;;;;;8.12;74.73;94238.03;5090959;28;20187;-64
2020/12/11 04:26:50;;;;;;;34.50;21.30;;;;;;;8.28;74.65;94257.97;5086882;28;20605;-66
2020/12/11 04:29:16;;;;;;;35.47;21.87;;;;;;;8.18;75.15;94263.09;5090520;28;20528;-63
2020/12/11 04:31:42;;;;;;;35.53;21.85;;;;;;;8.27;74.93;94266.81;5090487;28;20955;-66
2020/12/11 04:34:09;;;;;;;35.63;22.58;;;;;;;8.20;75.59;94271.47;5087499;28;20227;-65
2020/12/11 04:36:35;;;;;;;30.43;19.93;;;;;;;8.02;75.10;94248.44;5090625;28;20657;-65
2020/12/11 04:39:03;;;;;;;32.28;19.55;;;;;;;8.25;75.09;94268.91;5089629;28;20448;-70
2020/12/11 04:41:30;;;;;;;27.30;18.13;;;;;;;8.24;74.92;94272.56;5087863;28;20191;-69
2020/12/11 04:44:02;;;;;;;22.97;14.80;;;;;;;8.29;74.77;94275.19;5090309;28;20191;-67
2020/12/11 04:46:28;;;;;;;26.57;16.77;;;;;;;8.25;75.27;94283.78;5090279;28;21060;-65
2020/12/11 04:48:56;;;;;;;22.25;14.75;;;;;;;8.42;74.61;94269.47;5089053;28;20460;-65
2020/12/11 04:51:49;;;;;;;22.98;14.15;;;;;;;8.22;74.70;94274.59;5090054;28;20191;-65
2020/12/11 04:54:19;;;;;;;20.98;13.43;;;;;;;8.11;75.83;94257.34;5087141;28;20191;-67
2020/12/11 04:56:55;;;;;;;17.87;12.57;;;;;;;8.26;75.38;94275.69;5089258;28;20274;-65
2020/12/11 04:59:22;;;;;;;16.90;11.53;;;;;;;8.08;75.32;94269.06;5089381;28;20437;-68
2020/12/11 05:01:48;;;;;;;20.45;13.80;;;;;;;8.15;75.18;94274.84;5089991;28;20531;-65
2020/12/11 05:04:15;;;;;;;21.57;15.30;;;;;;;8.04;76.01;94269.84;5089181;28;20221;-66
2020/12/11 05:06:43;;;;;;;28.30;18.52;;;;;;;8.11;75.32;94273.00;5085330;28;20555;-64
2020/12/11 05:09:17;;;;;;;31.00;21.48;;;;;;;7.91;76.39;94267.69;5086534;28;20183;-64
2020/12/11 05:11:45;;;;;;;29.88;21.40;;;;;;;7.93;76.20;94276.03;5089541;28;20230;-63
2020/12/11 05:14:19;;;;;;;37.72;23.13;;;;;;;8.08;75.92;94278.72;5087008;28;20197;-65
2020/12/11 05:17:00;;;;;;;36.75;23.00;;;;;;;8.05;76.14;94289.66;5089789;28;20250;-66
2020/12/11 05:19:29;;;;;;;44.60;28.43;;;;;;;8.12;75.73;94290.19;5088848;28;20215;-65
2020/12/11 05:22:08;;;;;;;41.23;26.63;;;;;;;8.11;76.18;94291.25;5089556;28;20490;-64
2020/12/11 05:24:46;;;;;;;39.88;25.65;;;;;;;8.20;75.57;94294.94;5086701;28;21152;-65
2020/12/11 05:27:33;;;;;;;35.45;23.73;;;;;;;8.15;75.20;94289.72;5086872;28;20270;-65
2020/12/11 05:30:06;;;;;;;30.80;21.17;;;;;;;8.26;74.62;94280.91;5087491;28;20715;-65
2020/12/11 05:32:44;;;;;;;27.80;19.67;;;;;;;8.23;74.85;94286.59;5086664;28;20649;-65
2020/12/11 05:35:22;;;;;;;31.48;19.45;;;;;;;8.16;75.26;94296.50;5086006;28;20203;-64
2020/12/11 05:37:49;;;;;;;27.80;19.10;;;;;;;8.05;74.69;94300.09;5089049;28;20222;-64
2020/12/11 05:40:17;;;;;;;29.85;19.40;;;;;;;7.91;75.38;94296.38;5089098;28;20261;-66
2020/12/11 05:42:43;;;;;;;26.48;18.42;;;;;;;7.91;75.39;94304.19;5090076;28;20187;-65
2020/12/11 05:45:17;;;;;;;21.35;15.93;;;;;;;8.04;75.20;94309.75;5094355;28;21076;-66
2020/12/11 05:47:44;;;;;;;24.75;16.77;;;;;;;8.09;74.77;94316.81;5089489;28;20205;-64
2020/12/11 05:50:19;;;;;;;22.17;15.73;;;;;;;8.07;75.16;94318.88;5088276;28;20191;-63
2020/12/11 05:52:47;;;;;;;27.25;15.23;;;;;;;8.04;74.65;94316.78;5089258;28;20437;-67
2020/12/11 05:55:17;;;;;;;22.17;14.55;;;;;;;8.00;74.53;94320.94;5088238;28;20275;-65
2020/12/11 05:57:45;;;;;;;22.38;14.93;;;;;;;7.92;74.81;94321.41;5088718;28;20291;-65
2020/12/11 06:00:12;;;;;;;20.90;14.17;;;;;;;7.99;74.66;94325.38;5088424;28;20256;-67
2020/12/11 06:02:40;;;;;;;22.30;14.13;;;;;;;7.87;74.53;94337.03;5088823;28;20484;-65
2020/12/11 06:05:07;;;;;;;21.20;15.00;;;;;;;7.93;74.29;94328.22;5088224;28;20179;-65
2020/12/11 06:07:37;;;;;;;20.05;14.45;;;;;;;7.91;74.63;94325.84;5088670;28;20263;-68
2020/12/11 06:10:04;;;;;;;24.80;15.82;;;;;;;8.01;74.14;94338.94;5088188;28;20195;-70
2020/12/11 06:12:32;;;;;;;28.50;18.38;;;;;;;7.90;74.71;94350.34;5088578;28;20198;-64
2020/12/11 06:15:05;;;;;;;27.77;17.40;;;;;;;7.90;74.54;94350.34;5088605;28;20179;-66
2020/12/11 06:17:55;;;;;;;23.98;16.38;;;;;;;7.96;74.13;94356.38;5086345;28;20444;-66
2020/12/11 06:20:22;;;;;;;26.10;16.95;;;;;;;8.04;74.17;94356.72;5083255;28;20215;-67
2020/12/11 06:22:49;;;;;;;24.53;17.47;;;;;;;8.03;74.63;94356.94;5069691;28;20200;-65
2020/12/11 06:25:31;;;;;;;28.13;18.40;;;;;;;8.05;74.84;94347.06;5069603;28;20446;-67
2020/12/11 06:27:59;;;;;;;27.67;18.88;;;;;;;8.04;74.78;94345.50;5070003;28;20442;-66
2020/12/11 06:30:32;;;;;;;25.58;16.80;;;;;;;8.10;74.62;94354.94;5069096;28;20615;-70
2020/12/11 06:33:00;;;;;;;27.60;18.97;;;;;;;8.04;75.58;94340.28;5069635;28;20614;-67
2020/12/11 06:35:28;;;;;;;27.83;17.95;;;;;;;8.09;74.89;94348.91;5069669;28;20442;-68
2020/12/11 06:37:55;;;;;;;25.67;18.20;;;;;;;8.23;74.90;94348.47;5069802;28;20214;-67
2020/12/11 06:40:48;;;;;;;25.87;18.87;;;;;;;8.37;74.57;94350.41;5068925;28;20247;-67
2020/12/11 06:43:42;;;;;;;26.03;18.70;;;;;;;8.42;74.70;94349.63;5069342;28;20438;-68
2020/12/11 06:46:19;;;;;;;27.80;19.48;;;;;;;8.48;74.21;94354.63;5068954;28;20460;-65
2020/12/11 06:49:05;;;;;;;29.90;20.43;;;;;;;8.49;75.36;94358.78;5068957;28;20706;-67
2020/12/11 06:51:35;;;;;;;28.83;20.70;;;;;;;8.59;74.58;94348.41;5069670;28;20502;-67
2020/12/11 06:54:01;;;;;;;29.02;21.48;;;;;;;8.63;74.56;94339.00;5068854;28;20947;-68
2020/12/11 06:56:44;;;;;;;32.92;21.75;;;;;;;8.68;74.50;94346.06;5069723;28;20260;-66
2020/12/11 06:59:37;;;;;;;31.93;22.10;;;;;;;8.78;74.04;94344.25;5069018;28;20986;-65
2020/12/11 07:02:09;;;;;;;30.57;23.03;;;;;;;8.69;74.36;94358.88;5069305;28;20418;-65
2020/12/11 07:04:40;;;;;;;31.00;22.47;;;;;;;8.77;74.39;94361.00;5068931;28;20434;-64
2020/12/11 07:07:07;;;;;;;31.43;22.23;;;;;;;8.90;73.82;94355.28;5069311;28;20971;-64
2020/12/11 07:09:44;;;;;;;30.73;21.57;;;;;;;9.01;75.16;94358.69;5078173;28;20874;-65
2020/12/11 07:12:11;;;;;;;29.50;21.10;;;;;;;9.13;74.02;94354.81;5086026;28;20445;-68
2020/12/11 07:14:46;;;;;;;28.47;20.47;;;;;;;9.14;73.80;94366.81;5088154;28;20437;-68
2020/12/11 07:17:26;;;;;;;29.67;20.33;;;;;;;9.17;72.75;94363.72;5090736;28;20433;-69
2020/12/11 07:19:53;;;;;;;31.40;21.37;;;;;;;9.07;73.69;94366.28;5090788;28;20937;-69
2020/12/11 07:22:20;;;;;;;31.47;22.93;;;;;;;8.91;73.78;94361.28;5092518;28;20872;-69
2020/12/11 07:24:48;;;;;;;51.03;40.30;;;;;;;9.13;73.46;94364.47;5092633;28;20541;-70
2020/12/11 07:27:14;;;;;;;148.53;106.90;;;;;;;8.98;74.03;94367.84;5093130;28;20562;-68
2020/12/11 07:29:48;;;;;;;35.60;25.27;;;;;;;9.02;74.08;94363.66;5092912;28;20845;-67
2020/12/11 07:32:19;;;;;;;35.00;26.03;;;;;;;9.00;73.04;94360.53;5092498;28;20440;-66
2020/12/11 07:34:46;;;;;;;39.33;28.73;;;;;;;8.87;74.29;94371.47;5092416;28;20437;-66
2020/12/11 07:37:13;;;;;;;40.87;28.53;;;;;;;8.94;74.65;94377.22;5092999;28;20432;-68
2020/12/11 07:39:39;;;;;;;54.77;37.90;;;;;;;8.89;73.53;94369.38;5092062;28;20425;-69
2020/12/11 07:42:08;;;;;;;208.17;178.20;;;;;;;8.76;74.08;94356.78;5092976;28;20518;-69
2020/12/11 07:44:37;;;;;;;52.10;34.60;;;;;;;8.72;73.82;94371.41;5092141;28;20437;-71
2020/12/11 07:47:12;;;;;;;47.30;33.07;;;;;;;8.75;73.61;94368.31;5093433;28;20437;-68
2020/12/11 07:49:40;;;;;;;56.50;37.40;;;;;;;8.79;73.34;94364.13;5092095;28;20432;-71
2020/12/11 07:52:08;;;;;;;66.20;42.43;;;;;;;8.88;73.00;94359.97;5091144;28;20507;-69
2020/12/11 07:54:42;;;;;;;60.47;39.80;;;;;;;8.91;73.43;94369.91;5090858;28;20536;-70
2020/12/11 07:57:13;;;;;;;59.50;38.67;;;;;;;8.90;73.73;94367.56;5091151;28;20433;-68
2020/12/11 07:59:41;;;;;;;46.73;31.20;;;;;;;9.02;72.97;94363.66;5088070;28;20866;-68
2020/12/11 08:02:08;;;;;;;41.50;29.43;;;;;;;8.93;73.67;94373.06;5090270;28;20958;-70
2020/12/11 08:04:35;;;;;;;39.93;27.17;;;;;;;8.89;73.76;94374.59;5090283;28;20522;-69
2020/12/11 08:07:03;;;;;;;37.40;26.70;;;;;;;8.81;74.37;94377.69;5091475;28;20441;-70
2020/12/11 08:09:35;;;;;;;54.50;27.83;;;;;;;8.85;74.08;94380.63;5090869;28;20516;-70
2020/12/11 08:12:16;;;;;;;41.03;29.03;;;;;;;8.79;74.50;94385.03;5090361;28;20464;-68
2020/12/11 08:14:43;;;;;;;41.03;28.87;;;;;;;9.04;74.28;94389.53;5088705;28;20798;-67
2020/12/11 08:17:15;;;;;;;58.60;42.77;;;;;;;9.23;72.99;94390.63;5090930;28;20457;-68
2020/12/11 08:19:43;;;;;;;38.10;24.57;;;;;;;9.23;73.24;94389.84;5090317;28;20457;-70
2020/12/11 08:22:16;;;;;;;38.20;24.27;;;;;;;9.20;73.01;94370.22;5090637;28;20431;-69
2020/12/11 08:24:44;;;;;;;36.77;24.87;;;;;;;9.59;72.44;94394.06;5088013;28;20433;-70
2020/12/11 08:27:21;;;;;;;37.13;26.10;;;;;;;9.82;71.27;94375.22;5090243;28;20430;-70
2020/12/11 08:30:15;;;;;;;36.53;25.70;;;;;;;10.25;69.77;94381.75;5089901;28;20505;-72
2020/12/11 08:32:43;;;;;;;35.97;25.00;;;;;;;10.62;69.54;94382.94;5089166;28;20530;-67
2020/12/11 08:35:14;;;;;;;37.77;25.07;;;;;;;10.82;67.89;94369.75;5091539;28;20515;-71
2020/12/11 08:37:54;;;;;;;32.50;23.83;;;;;;;11.00;66.58;94377.00;5087215;28;20436;-72
2020/12/11 08:40:23;;;;;;;36.00;25.90;;;;;;;11.54;65.54;94368.31;5090976;28;20650;-70
2020/12/11 08:43:17;;;;;;;35.10;26.40;;;;;;;11.80;64.58;94372.34;5091548;28;20802;-70
2020/12/11 08:46:09;;;;;;;38.77;27.70;;;;;;;12.27;64.78;94361.13;5091129;28;20506;-72
2020/12/11 08:49:17;;;;;;;38.10;28.23;;;;;;;12.76;62.62;94357.19;5090563;28;21369;-68
2020/12/11 08:51:44;;;;;;;42.47;28.53;;;;;;;11.80;61.72;94367.09;5093350;28;20444;-72
2020/12/11 08:54:11;;;;;;;96.70;75.53;;;;;;;11.79;63.75;94360.25;5095802;28;20444;-71
2020/12/11 08:56:44;;;;;;;56.07;40.10;;;;;;;11.56;61.32;94366.19;5091334;28;20441;-72
2020/12/11 08:59:11;;;;;;;39.03;29.90;;;;;;;10.92;62.91;94371.56;5090605;28;20461;-76
2020/12/11 09:01:41;;;;;;;41.63;28.97;;;;;;;10.93;63.91;94368.66;5090868;28;20591;-73
2020/12/11 09:04:08;;;;;;;40.37;31.07;;;;;;;10.61;65.18;94360.44;5090871;28;20532;-77
2020/12/11 09:06:35;;;;;;;41.57;29.80;;;;;;;10.32;66.85;94350.84;5090890;28;20521;-70
2020/12/11 09:09:02;;;;;;;39.30;29.73;;;;;;;10.32;67.82;94337.75;5090596;28;20441;-73
2020/12/11 09:11:30;;;;;;;39.73;30.57;;;;;;;10.49;68.12;94362.56;5091107;28;20445;-72
2020/12/11 09:13:57;;;;;;;43.20;30.53;;;;;;;10.41;68.56;94365.75;5090996;28;20442;-68
2020/12/11 09:16:23;;;;;;;41.47;30.30;;;;;;;10.51;69.34;94363.06;5090502;28;20433;-73
2020/12/11 09:18:50;;;;;;;40.53;30.07;;;;;;;10.73;68.59;94374.00;5090662;28;20460;-73
2020/12/11 09:21:16;;;;;;;41.07;30.53;;;;;;;10.52;68.88;94362.03;5090631;28;20856;-72
2020/12/11 09:23:42;;;;;;;40.37;29.77;;;;;;;10.65;68.21;94361.47;5089755;28;20535;-70
2020/12/11 09:26:09;;;;;;;41.30;29.87;;;;;;;10.69;67.85;94359.84;5089176;28;20437;-73
2020/12/11 09:28:37;;;;;;;35.47;26.50;;;;;;;10.85;66.45;94348.28;5089870;28;21306;-68
2020/12/11 09:31:03;;;;;;;35.77;27.70;;;;;;;10.96;66.83;94349.00;5090230;28;20449;-72
2020/12/11 09:33:35;;;;;;;37.23;28.37;;;;;;;11.37;65.21;94346.94;5089681;28;20484;-75
2020/12/11 09:36:03;;;;;;;33.20;26.83;;;;;;;11.56;64.09;94338.13;5088897;28;20436;-71
2020/12/11 09:38:29;;;;;;;34.03;27.70;;;;;;;11.61;63.99;94342.53;5089142;28;20433;-73
2020/12/11 09:41:03;;;;;;;39.70;28.67;;;;;;;11.30;64.67;94338.56;5089600;28;20469;-73
2020/12/11 09:56:24;;;;;;;39.77;29.23;;;;;;;10.82;63.13;94329.69;5089964;28;20433;-70
2020/12/11 09:58:55;;;;;;;40.10;30.27;;;;;;;10.33;63.48;94327.00;5089408;28;20502;-68
2020/12/11 10:01:31;;;;;;;42.23;31.10;;;;;;;10.41;64.25;94328.28;5089880;28;20557;-69
2020/12/11 10:03:57;;;;;;;42.17;31.80;;;;;;;10.87;64.99;94330.44;5089274;28;20512;-71
2020/12/11 10:06:25;;;;;;;46.83;32.67;;;;;;;11.23;64.70;94315.28;5089745;28;20453;-69
2020/12/11 10:08:53;;;;;;;40.50;31.07;;;;;;;11.14;65.38;94315.09;5088559;28;20890;-71
2020/12/11 10:11:20;;;;;;;40.67;31.23;;;;;;;11.11;65.04;94327.97;5089865;28;20438;-71
2020/12/11 10:13:54;;;;;;;42.80;32.03;;;;;;;10.85;64.03;94329.94;5088712;28;20997;-71
2020/12/11 10:16:22;;;;;;;48.63;33.23;;;;;;;10.07;65.39;94323.63;5090100;28;20447;-73
2020/12/11 10:18:48;;;;;;;42.53;33.13;;;;;;;10.06;65.18;94308.19;5088724;28;20445;-71
2020/12/11 10:21:17;;;;;;;48.37;33.27;;;;;;;10.26;65.78;94316.03;5089691;28;20477;-70
2020/12/11 10:23:43;;;;;;;46.57;32.53;;;;;;;10.85;65.19;94306.34;5088672;28;20456;-72
2020/12/11 10:26:09;;;;;;;46.83;33.87;;;;;;;11.49;64.16;94308.00;5089460;28;20433;-70
2020/12/11 10:28:36;;;;;;;49.33;33.07;;;;;;;11.67;63.66;94296.88;5090368;28;20438;-70
2020/12/11 10:31:02;;;;;;;57.27;39.63;;;;;;;11.59;62.71;94292.16;5093342;28;20441;-68
2020/12/11 10:33:28;;;;;;;43.87;31.73;;;;;;;11.78;62.87;94295.72;5089138;28;20468;-70
2020/12/11 10:35:55;;;;;;;39.17;30.57;;;;;;;11.67;63.53;94289.78;5089504;28;20445;-75
2020/12/11 10:38:23;;;;;;;39.03;28.80;;;;;;;11.25;62.17;94286.94;5088229;28;20444;-68
2020/12/11 10:40:50;;;;;;;40.90;30.23;;;;;;;11.38;62.13;94272.41;5088615;28;20859;-70
2020/12/11 10:43:16;;;;;;;40.00;28.90;;;;;;;11.62;61.34;94281.13;5088585;28;20437;-67
2020/12/11 10:45:43;;;;;;;38.53;27.40;;;;;;;11.51;61.21;94274.41;5089196;28;20537;-67
2020/12/11 10:48:09;;;;;;;38.07;27.83;;;;;;;11.57;61.72;94268.06;5089027;28;20440;-66
2020/12/11 10:50:36;;;;;;;36.80;27.03;;;;;;;11.74;62.15;94273.69;5088259;28;20440;-69
2020/12/11 10:53:02;;;;;;;32.90;25.43;;;;;;;11.62;62.11;94275.91;5088739;28;20485;-68
2020/12/11 10:55:29;;;;;;;35.27;26.10;;;;;;;11.51;62.07;94269.16;5087781;28;21038;-71
2020/12/11 10:57:55;;;;;;;34.57;25.10;;;;;;;11.46;62.12;94261.34;5088646;28;20472;-70
2020/12/11 11:00:22;;;;;;;34.67;25.33;;;;;;;11.57;61.83;94262.81;5087813;28;20465;-69
2020/12/11 11:02:50;;;;;;;32.10;25.10;;;;;;;11.61;61.81;94253.31;5091756;28;20421;-67
2020/12/11 11:05:17;;;;;;;38.60;24.43;;;;;;;11.44;61.44;94263.47;5097300;28;20585;-68
2020/12/11 11:07:44;;;;;;;98.20;84.40;;;;;;;11.39;62.05;94250.38;5088499;28;20445;-68
2020/12/11 11:12:42;;;;;;;31.97;24.30;;;;;;;11.93;61.33;94240.44;5088887;28;20440;-68
2020/12/11 11:15:39;;;;;;;32.17;23.53;;;;;;;11.92;61.35;94242.28;5088083;28;20491;-68
2020/12/11 11:28:34;;;;;;;37.43;24.77;;;;;;;11.95;61.25;94239.09;5088470;28;21372;-68
2020/12/11 11:31:00;;;;;;;40.37;25.63;;;;;;;11.66;60.30;94214.72;5088431;28;20521;-68
2020/12/11 11:33:26;;;;;;;35.47;25.67;;;;;;;11.99;59.21;94234.06;5087894;28;20461;-69
2020/12/11 11:35:53;;;;;;;35.47;24.50;;;;;;;11.75;59.76;94233.28;5088583;28;20522;-69
2020/12/11 11:38:20;;;;;;;38.73;25.77;;;;;;;11.51;60.04;94229.81;5088112;28;20513;-68
2020/12/11 11:40:49;;;;;;;32.23;25.43;;;;;;;11.68;60.71;94223.09;5088014;28;20568;-67
2020/12/11 11:43:22;;;;;;;35.50;24.60;;;;;;;12.03;59.97;94221.94;5088312;28;20528;-68
2020/12/11 11:45:49;;;;;;;35.60;27.27;;;;;;;12.80;58.42;94212.81;5087115;28;20965;-67
2020/12/11 11:48:17;;;;;;;32.43;23.57;;;;;;;13.71;56.38;94202.38;5086821;28;20433;-67
2020/12/11 11:53:16;;;;;;;31.57;23.77;;;;;;;14.33;53.42;94214.13;5087758;28;20465;-68
2020/12/11 11:55:43;;;;;;;31.60;23.70;;;;;;;13.65;54.39;94171.97;5085628;28;21097;-68
2020/12/11 11:58:10;;;;;;;29.40;22.63;;;;;;;14.03;54.15;94214.72;5087768;28;20519;-71
2020/12/11 12:00:36;;;;;;;30.43;23.67;;;;;;;13.82;54.62;94203.78;5086964;28;20480;-72
2020/12/11 12:03:03;;;;;;;31.53;24.13;;;;;;;13.86;54.55;94203.97;5088963;28;20437;-70
2020/12/11 12:05:30;;;;;;;33.23;24.60;;;;;;;13.15;55.67;94199.16;5090988;28;20588;-71